Terminal Aerodrome Forecast
Issued by NWS Louisville, KY

Home | Current Version | Previous Version | Text Only | Print | Product List | Glossary On
Versions: 1 2 3 4 5 6 7 8 9 10 11 12 13 14 15 16 17 18 19
000
FTUS43 KLMK 220324 AAA
TAFSDF
TAF AMD
KSDF 220324Z 2203/2306 36012KT P6SM -SHRA SCT007 OVC050
     FM220700 02011KT P6SM VCSH OVC023
     FM221100 05011G18KT 6SM -SHRA OVC014
     FM222100 05012G20KT P6SM VCSH OVC021=

USA.gov is the U.S. government's official web portal to all federal, state and local government web resources and services.